sensor_id;sensor_type;location;lat;lon;timestamp;pressure;altitude;pressure_sealevel;temperature;humidity
51468;BME280;37545;45.302;-122.946;2024-01-06T00:00:23;101767.63;;;9.37;100.00
51468;BME280;37545;45.302;-122.946;2024-01-06T00:03:03;101748.75;;;9.38;99.93
51468;BME280;37545;45.302;-122.946;2024-01-06T00:05:32;101766.75;;;9.37;99.16
51468;BME280;37545;45.302;-122.946;2024-01-06T00:08:00;101762.47;;;9.37;99.45
51468;BME280;37545;45.302;-122.946;2024-01-06T00:10:44;101757.31;;;9.37;99.62
51468;BME280;37545;45.302;-122.946;2024-01-06T00:13:12;101748.59;;;9.35;99.36
51468;BME280;37545;45.302;-122.946;2024-01-06T00:15:41;101754.72;;;9.37;100.00
51468;BME280;37545;45.302;-122.946;2024-01-06T00:18:18;101744.41;;;9.37;99.09
51468;BME280;37545;45.302;-122.946;2024-01-06T00:20:47;101732.78;;;9.29;98.24
51468;BME280;37545;45.302;-122.946;2024-01-06T00:23:16;101733.66;;;9.30;97.90
51468;BME280;37545;45.302;-122.946;2024-01-06T00:25:48;101731.03;;;9.28;98.61
51468;BME280;37545;45.302;-122.946;2024-01-06T00:28:20;101737.81;;;9.26;98.12
51468;BME280;37545;45.302;-122.946;2024-01-06T00:30:49;101734.25;;;9.24;98.79
51468;BME280;37545;45.302;-122.946;2024-01-06T00:33:18;101731.81;;;9.27;98.82
51468;BME280;37545;45.302;-122.946;2024-01-06T00:35:47;101709.06;;;9.20;98.88
51468;BME280;37545;45.302;-122.946;2024-01-06T00:38:26;101703.13;;;9.21;100.00
51468;BME280;37545;45.302;-122.946;2024-01-06T00:40:57;101708.09;;;9.18;99.85
51468;BME280;37545;45.302;-122.946;2024-01-06T00:43:26;101719.31;;;9.18;99.42
51468;BME280;37545;45.302;-122.946;2024-01-06T00:45:56;101727.16;;;9.20;99.73
51468;BME280;37545;45.302;-122.946;2024-01-06T00:48:27;101720.97;;;9.16;99.38
51468;BME280;37545;45.302;-122.946;2024-01-06T00:51:07;101715.81;;;9.16;100.00
51468;BME280;37545;45.302;-122.946;2024-01-06T00:53:41;101703.53;;;9.12;100.00
51468;BME280;37545;45.302;-122.946;2024-01-06T00:56:11;101705.25;;;9.12;100.00
51468;BME280;37545;45.302;-122.946;2024-01-06T00:58:40;101689.88;;;9.15;100.00
51468;BME280;37545;45.302;-122.946;2024-01-06T01:01:09;101682.78;;;9.11;100.00
51468;BME280;37545;45.302;-122.946;2024-01-06T01:03:38;101674.03;;;9.07;100.00
51468;BME280;37545;45.302;-122.946;2024-01-06T01:06:07;101680.22;;;9.11;100.00
51468;BME280;37545;45.302;-122.946;2024-01-06T01:08:36;101670.53;;;9.07;100.00
51468;BME280;37545;45.302;-122.946;2024-01-06T01:11:05;101669.50;;;9.03;100.00
51468;BME280;37545;45.302;-122.946;2024-01-06T01:13:36;101668.13;;;9.10;100.00
51468;BME280;37545;45.302;-122.946;2024-01-06T01:16:08;101654.41;;;9.11;100.00
51468;BME280;37545;45.302;-122.946;2024-01-06T01:18:37;101645.03;;;9.13;100.00
51468;BME280;37545;45.302;-122.946;2024-01-06T01:21:06;101636.31;;;9.11;100.00
51468;BME280;37545;45.302;-122.946;2024-01-06T01:23:35;101630.28;;;9.10;100.00
51468;BME280;37545;45.302;-122.946;2024-01-06T01:26:04;101627.47;;;9.06;100.00
51468;BME280;37545;45.302;-122.946;2024-01-06T01:28:35;101638.03;;;9.10;100.00
51468;BME280;37545;45.302;-122.946;2024-01-06T01:31:04;101650.09;;;9.11;100.00
51468;BME280;37545;45.302;-122.946;2024-01-06T01:33:33;101632.94;;;9.12;100.00
51468;BME280;37545;45.302;-122.946;2024-01-06T01:36:02;101617.13;;;9.06;99.77
51468;BME280;37545;45.302;-122.946;2024-01-06T01:38:36;101604.09;;;9.02;99.96
51468;BME280;37545;45.302;-122.946;2024-01-06T01:41:06;101578.94;;;8.98;100.00
51468;BME280;37545;45.302;-122.946;2024-01-06T01:43:38;101583.78;;;8.92;100.00
51468;BME280;37545;45.302;-122.946;2024-01-06T01:46:13;101589.47;;;8.85;100.00
51468;BME280;37545;45.302;-122.946;2024-01-06T01:48:42;101596.38;;;8.86;100.00
51468;BME280;37545;45.302;-122.946;2024-01-06T01:51:12;101598.06;;;8.86;100.00
51468;BME280;37545;45.302;-122.946;2024-01-06T01:53:41;101591.94;;;8.84;100.00
51468;BME280;37545;45.302;-122.946;2024-01-06T01:56:11;101601.25;;;8.80;100.00
51468;BME280;37545;45.302;-122.946;2024-01-06T01:58:49;101589.66;;;8.72;100.00
51468;BME280;37545;45.302;-122.946;2024-01-06T02:01:18;101592.97;;;8.69;100.00
51468;BME280;37545;45.302;-122.946;2024-01-06T02:03:50;101592.00;;;8.67;100.00
51468;BME280;37545;45.302;-122.946;2024-01-06T02:19:44;101568.41;;;8.59;100.00
51468;BME280;37545;45.302;-122.946;2024-01-06T02:22:25;101545.00;;;8.56;100.00
51468;BME280;37545;45.302;-122.946;2024-01-06T02:24:54;101556.97;;;8.54;100.00
51468;BME280;37545;45.302;-122.946;2024-01-06T02:27:23;101564.75;;;8.56;100.00
51468;BME280;37545;45.302;-122.946;2024-01-06T02:29:56;101549.16;;;8.53;100.00
51468;BME280;37545;45.302;-122.946;2024-01-06T02:32:25;101524.09;;;8.50;100.00
51468;BME280;37545;45.302;-122.946;2024-01-06T02:34:55;101523.13;;;8.48;100.00
51468;BME280;37545;45.302;-122.946;2024-01-06T02:37:26;101521.34;;;8.47;100.00
51468;BME280;37545;45.302;-122.946;2024-01-06T02:39:55;101529.06;;;8.47;100.00
51468;BME280;37545;45.302;-122.946;2024-01-06T02:42:27;101536.03;;;8.48;100.00
51468;BME280;37545;45.302;-122.946;2024-01-06T02:44:56;101530.53;;;8.42;100.00
51468;BME280;37545;45.302;-122.946;2024-01-06T02:47:25;101515.69;;;8.38;100.00
51468;BME280;37545;45.302;-122.946;2024-01-06T02:49:58;101525.22;;;8.39;100.00
51468;BME280;37545;45.302;-122.946;2024-01-06T03:27:23;101421.06;;;7.85;100.00
51468;BME280;37545;45.302;-122.946;2024-01-06T03:29:51;101419.44;;;7.87;100.00
51468;BME280;37545;45.302;-122.946;2024-01-06T03:32:20;101406.66;;;7.88;100.00
51468;BME280;37545;45.302;-122.946;2024-01-06T03:34:57;101386.44;;;7.80;100.00
51468;BME280;37545;45.302;-122.946;2024-01-06T03:37:27;101388.38;;;7.84;100.00
51468;BME280;37545;45.302;-122.946;2024-01-06T03:39:56;101378.81;;;7.81;100.00
51468;BME280;37545;45.302;-122.946;2024-01-06T03:42:43;101387.81;;;7.73;100.00
51468;BME280;37545;45.302;-122.946;2024-01-06T03:45:13;101369.66;;;7.70;100.00
51468;BME280;37545;45.302;-122.946;2024-01-06T03:47:42;101370.66;;;7.73;100.00
51468;BME280;37545;45.302;-122.946;2024-01-06T03:50:11;101370.66;;;7.73;100.00
51468;BME280;37545;45.302;-122.946;2024-01-06T03:52:43;101354.94;;;7.67;100.00
51468;BME280;37545;45.302;-122.946;2024-01-06T03:55:12;101356.03;;;7.72;100.00
51468;BME280;37545;45.302;-122.946;2024-01-06T03:57:44;101351.03;;;7.75;100.00
51468;BME280;37545;45.302;-122.946;2024-01-06T04:00:18;101335.56;;;7.75;100.00
51468;BME280;37545;45.302;-122.946;2024-01-06T04:02:48;101322.03;;;7.80;100.00
51468;BME280;37545;45.302;-122.946;2024-01-06T04:05:17;101300.47;;;7.78;100.00
51468;BME280;37545;45.302;-122.946;2024-01-06T04:31:22;101220.22;;;7.52;100.00
51468;BME280;37545;45.302;-122.946;2024-01-06T04:33:57;101197.72;;;7.48;100.00
51468;BME280;37545;45.302;-122.946;2024-01-06T04:36:26;101185.50;;;7.44;100.00
51468;BME280;37545;45.302;-122.946;2024-01-06T04:44:03;101156.28;;;7.25;100.00
51468;BME280;37545;45.302;-122.946;2024-01-06T04:46:34;101121.19;;;7.27;100.00
51468;BME280;37545;45.302;-122.946;2024-01-06T04:49:09;101121.19;;;7.27;100.00
51468;BME280;37545;45.302;-122.946;2024-01-06T04:51:43;101067.88;;;7.25;100.00
51468;BME280;37545;45.302;-122.946;2024-01-06T04:54:12;101073.13;;;7.26;100.00
51468;BME280;37545;45.302;-122.946;2024-01-06T04:56:41;101042.81;;;7.21;100.00
51468;BME280;37545;45.302;-122.946;2024-01-06T04:59:20;101078.09;;;7.23;100.00
51468;BME280;37545;45.302;-122.946;2024-01-06T05:01:57;101093.41;;;7.20;100.00
51468;BME280;37545;45.302;-122.946;2024-01-06T05:04:27;101082.75;;;7.12;100.00
51468;BME280;37545;45.302;-122.946;2024-01-06T05:07:07;101080.41;;;7.17;100.00
51468;BME280;37545;45.302;-122.946;2024-01-06T05:09:36;101064.13;;;7.18;100.00
51468;BME280;37545;45.302;-122.946;2024-01-06T05:30:33;101068.97;;;7.30;100.00
51468;BME280;37545;45.302;-122.946;2024-01-06T05:33:06;101064.44;;;7.42;100.00
51468;BME280;37545;45.302;-122.946;2024-01-06T05:35:39;101056.00;;;7.46;100.00
51468;BME280;37545;45.302;-122.946;2024-01-06T05:38:11;101045.94;;;7.51;100.00
51468;BME280;37545;45.302;-122.946;2024-01-06T05:40:47;101032.53;;;7.58;100.00
51468;BME280;37545;45.302;-122.946;2024-01-06T05:43:17;101038.50;;;7.57;100.00
51468;BME280;37545;45.302;-122.946;2024-01-06T05:45:56;101059.19;;;7.59;100.00
51468;BME280;37545;45.302;-122.946;2024-01-06T05:48:26;101053.06;;;7.57;100.00
51468;BME280;37545;45.302;-122.946;2024-01-06T05:50:55;101046.09;;;7.54;100.00
51468;BME280;37545;45.302;-122.946;2024-01-06T05:53:25;101040.72;;;7.49;100.00
51468;BME280;37545;45.302;-122.946;2024-01-06T05:56:03;101023.59;;;7.50;100.00
51468;BME280;37545;45.302;-122.946;2024-01-06T05:58:32;101025.06;;;7.45;100.00
51468;BME280;37545;45.302;-122.946;2024-01-06T06:01:05;101021.00;;;7.50;100.00
51468;BME280;37545;45.302;-122.946;2024-01-06T06:03:41;101008.22;;;7.51;100.00
51468;BME280;37545;45.302;-122.946;2024-01-06T06:06:10;101000.41;;;7.50;100.00
51468;BME280;37545;45.302;-122.946;2024-01-06T06:08:40;100989.50;;;7.55;100.00
51468;BME280;37545;45.302;-122.946;2024-01-06T06:11:10;100976.56;;;7.54;100.00
51468;BME280;37545;45.302;-122.946;2024-01-06T06:13:43;100975.63;;;7.52;100.00
51468;BME280;37545;45.302;-122.946;2024-01-06T06:16:14;100957.31;;;7.46;100.00
51468;BME280;37545;45.302;-122.946;2024-01-06T06:18:43;100951.16;;;7.42;100.00
51468;BME280;37545;45.302;-122.946;2024-01-06T06:21:11;100946.25;;;7.48;100.00
51468;BME280;37545;45.302;-122.946;2024-01-06T06:23:45;100935.09;;;7.48;100.00
51468;BME280;37545;45.302;-122.946;2024-01-06T06:26:14;100926.53;;;7.49;100.00
51468;BME280;37545;45.302;-122.946;2024-01-06T06:28:44;100910.84;;;7.43;100.00
51468;BME280;37545;45.302;-122.946;2024-01-06T06:31:16;100913.06;;;7.35;100.00
51468;BME280;37545;45.302;-122.946;2024-01-06T06:33:48;100904.63;;;7.38;100.00
51468;BME280;37545;45.302;-122.946;2024-01-06T06:36:17;100889.97;;;7.37;100.00
51468;BME280;37545;45.302;-122.946;2024-01-06T06:38:46;100888.06;;;7.32;100.00
51468;BME280;37545;45.302;-122.946;2024-01-06T06:41:15;100872.88;;;7.39;100.00
51468;BME280;37545;45.302;-122.946;2024-01-06T06:43:49;100878.78;;;7.36;100.00
51468;BME280;37545;45.302;-122.946;2024-01-06T06:46:20;100861.38;;;7.30;100.00
51468;BME280;37545;45.302;-122.946;2024-01-06T06:48:49;100848.38;;;7.27;100.00
51468;BME280;37545;45.302;-122.946;2024-01-06T06:51:18;100864.13;;;7.35;100.00
51468;BME280;37545;45.302;-122.946;2024-01-06T06:53:56;100839.16;;;7.32;100.00
51468;BME280;37545;45.302;-122.946;2024-01-06T06:56:25;100858.00;;;7.31;100.00
51468;BME280;37545;45.302;-122.946;2024-01-06T06:58:54;100845.88;;;7.29;100.00
51468;BME280;37545;45.302;-122.946;2024-01-06T07:01:31;100849.44;;;7.32;100.00
51468;BME280;37545;45.302;-122.946;2024-01-06T07:04:00;100831.31;;;7.29;100.00
51468;BME280;37545;45.302;-122.946;2024-01-06T07:06:29;100832.53;;;7.18;100.00
51468;BME280;37545;45.302;-122.946;2024-01-06T07:08:58;100827.69;;;7.26;100.00
51468;BME280;37545;45.302;-122.946;2024-01-06T07:11:30;100807.94;;;7.25;100.00
51468;BME280;37545;45.302;-122.946;2024-01-06T07:14:02;100812.22;;;7.24;100.00
51468;BME280;37545;45.302;-122.946;2024-01-06T07:16:32;100807.63;;;7.17;100.00
51468;BME280;37545;45.302;-122.946;2024-01-06T07:19:01;100790.59;;;7.21;100.00
51468;BME280;37545;45.302;-122.946;2024-01-06T07:21:38;100778.00;;;7.07;100.00
51468;BME280;37545;45.302;-122.946;2024-01-06T07:24:07;100762.00;;;7.14;100.00
51468;BME280;37545;45.302;-122.946;2024-01-06T07:26:36;100753.44;;;7.14;100.00
51468;BME280;37545;45.302;-122.946;2024-01-06T07:29:05;100746.66;;;7.16;100.00
51468;BME280;37545;45.302;-122.946;2024-01-06T07:31:38;100732.84;;;7.14;100.00
51468;BME280;37545;45.302;-122.946;2024-01-06T07:34:08;100745.66;;;7.12;100.00
51468;BME280;37545;45.302;-122.946;2024-01-06T07:36:37;100743.28;;;7.17;100.00
51468;BME280;37545;45.302;-122.946;2024-01-06T07:39:06;100732.09;;;7.17;100.00
51468;BME280;37545;45.302;-122.946;2024-01-06T07:41:35;100727.78;;;7.16;100.00
51468;BME280;37545;45.302;-122.946;2024-01-06T07:44:04;100727.97;;;7.20;100.00
51468;BME280;37545;45.302;-122.946;2024-01-06T07:46:33;100717.56;;;7.17;100.00
51468;BME280;37545;45.302;-122.946;2024-01-06T07:49:05;100731.50;;;7.22;100.00
51468;BME280;37545;45.302;-122.946;2024-01-06T07:51:34;100730.63;;;7.22;100.00
51468;BME280;37545;45.302;-122.946;2024-01-06T07:54:04;100717.03;;;7.26;100.00
51468;BME280;37545;45.302;-122.946;2024-01-06T07:56:35;100708.59;;;7.28;100.00
51468;BME280;37545;45.302;-122.946;2024-01-06T07:59:04;100712.78;;;7.26;100.00
51468;BME280;37545;45.302;-122.946;2024-01-06T08:01:32;100725.66;;;7.26;100.00
51468;BME280;37545;45.302;-122.946;2024-01-06T08:04:13;100708.72;;;7.31;100.00
51468;BME280;37545;45.302;-122.946;2024-01-06T08:06:42;100705.25;;;7.31;100.00
51468;BME280;37545;45.302;-122.946;2024-01-06T08:09:11;100683.53;;;7.24;100.00
51468;BME280;37545;45.302;-122.946;2024-01-06T08:11:42;100684.22;;;7.20;100.00
51468;BME280;37545;45.302;-122.946;2024-01-06T08:14:15;100691.09;;;7.21;100.00
51468;BME280;37545;45.302;-122.946;2024-01-06T08:16:44;100679.75;;;7.16;100.00
51468;BME280;37545;45.302;-122.946;2024-01-06T08:19:15;100686.78;;;7.20;100.00
51468;BME280;37545;45.302;-122.946;2024-01-06T08:21:46;100673.72;;;7.16;100.00
51468;BME280;37545;45.302;-122.946;2024-01-06T08:24:18;100668.59;;;7.16;100.00
51468;BME280;37545;45.302;-122.946;2024-01-06T08:26:47;100658.91;;;7.10;100.00
51468;BME280;37545;45.302;-122.946;2024-01-06T08:29:16;100663.16;;;7.09;100.00
51468;BME280;37545;45.302;-122.946;2024-01-06T08:31:53;100658.03;;;7.09;100.00
51468;BME280;37545;45.302;-122.946;2024-01-06T08:34:24;100652.84;;;7.08;100.00
51468;BME280;37545;45.302;-122.946;2024-01-06T08:36:53;100646.34;;;6.97;100.00
51468;BME280;37545;45.302;-122.946;2024-01-06T08:39:21;100642.00;;;6.96;100.00
51468;BME280;37545;45.302;-122.946;2024-01-06T08:41:53;100657.31;;;6.92;100.00
51468;BME280;37545;45.302;-122.946;2024-01-06T08:44:22;100648.66;;;6.90;100.00
51468;BME280;37545;45.302;-122.946;2024-01-06T08:46:51;100638.94;;;6.83;100.00
51468;BME280;37545;45.302;-122.946;2024-01-06T08:49:22;100658.00;;;6.88;100.00
51468;BME280;37545;45.302;-122.946;2024-01-06T08:52:03;100658.84;;;6.87;100.00
51468;BME280;37545;45.302;-122.946;2024-01-06T08:54:32;100654.72;;;6.71;100.00
51468;BME280;37545;45.302;-122.946;2024-01-06T08:57:01;100639.13;;;6.68;100.00
51468;BME280;37545;45.302;-122.946;2024-01-06T08:59:30;100633.31;;;6.72;100.00
51468;BME280;37545;45.302;-122.946;2024-01-06T09:02:05;100616.34;;;6.76;100.00
51468;BME280;37545;45.302;-122.946;2024-01-06T09:04:37;100611.59;;;6.85;100.00
51468;BME280;37545;45.302;-122.946;2024-01-06T09:07:06;100607.13;;;6.81;100.00
51468;BME280;37545;45.302;-122.946;2024-01-06T09:09:43;100600.09;;;6.77;100.00
51468;BME280;37545;45.302;-122.946;2024-01-06T09:12:12;100593.25;;;6.78;100.00
51468;BME280;37545;45.302;-122.946;2024-01-06T09:14:41;100578.72;;;6.78;100.00
51468;BME280;37545;45.302;-122.946;2024-01-06T09:17:13;100572.47;;;6.73;100.00
51468;BME280;37545;45.302;-122.946;2024-01-06T09:19:52;100571.41;;;6.68;100.00
51468;BME280;37545;45.302;-122.946;2024-01-06T09:22:22;100565.63;;;6.53;100.00
51468;BME280;37545;45.302;-122.946;2024-01-06T09:24:54;100565.78;;;6.56;100.00
51468;BME280;37545;45.302;-122.946;2024-01-06T09:27:26;100556.28;;;6.55;100.00
51468;BME280;37545;45.302;-122.946;2024-01-06T09:29:54;100550.06;;;6.49;100.00
51468;BME280;37545;45.302;-122.946;2024-01-06T09:32:24;100539.69;;;6.46;100.00
51468;BME280;37545;45.302;-122.946;2024-01-06T09:34:56;100535.28;;;6.44;100.00
51468;BME280;37545;45.302;-122.946;2024-01-06T09:37:25;100529.25;;;6.43;100.00
51468;BME280;37545;45.302;-122.946;2024-01-06T09:39:54;100509.44;;;6.41;100.00
51468;BME280;37545;45.302;-122.946;2024-01-06T09:42:23;100511.31;;;6.45;100.00
51468;BME280;37545;45.302;-122.946;2024-01-06T09:44:53;100497.47;;;6.41;100.00
51468;BME280;37545;45.302;-122.946;2024-01-06T09:47:26;100492.28;;;6.40;100.00
51468;BME280;37545;45.302;-122.946;2024-01-06T09:50:02;100493.63;;;6.32;100.00
51468;BME280;37545;45.302;-122.946;2024-01-06T09:52:33;100478.66;;;6.21;100.00
51468;BME280;37545;45.302;-122.946;2024-01-06T09:55:10;100466.56;;;6.19;100.00
51468;BME280;37545;45.302;-122.946;2024-01-06T09:57:40;100456.66;;;6.07;100.00
51468;BME280;37545;45.302;-122.946;2024-01-06T10:00:11;100455.00;;;6.09;100.00
51468;BME280;37545;45.302;-122.946;2024-01-06T10:02:48;100435.34;;;6.10;100.00
51468;BME280;37545;45.302;-122.946;2024-01-06T10:05:19;100438.91;;;6.13;100.00
51468;BME280;37545;45.302;-122.946;2024-01-06T10:07:49;100432.31;;;5.99;100.00
51468;BME280;37545;45.302;-122.946;2024-01-06T10:10:22;100415.72;;;5.92;100.00
51468;BME280;37545;45.302;-122.946;2024-01-06T10:12:55;100408.84;;;5.91;100.00
51468;BME280;37545;45.302;-122.946;2024-01-06T10:15:25;100398.38;;;5.86;100.00
51468;BME280;37545;45.302;-122.946;2024-01-06T10:17:54;100396.53;;;5.84;100.00
51468;BME280;37545;45.302;-122.946;2024-01-06T10:20:34;100368.84;;;5.77;100.00
51468;BME280;37545;45.302;-122.946;2024-01-06T10:23:05;100356.84;;;5.76;100.00
51468;BME280;37545;45.302;-122.946;2024-01-06T10:25:52;100357.81;;;5.79;100.00
51468;BME280;37545;45.302;-122.946;2024-01-06T10:28:22;100341.16;;;5.70;100.00
51468;BME280;37545;45.302;-122.946;2024-01-06T10:30:52;100348.94;;;5.71;100.00
51468;BME280;37545;45.302;-122.946;2024-01-06T10:33:25;100344.56;;;5.69;100.00
51468;BME280;37545;45.302;-122.946;2024-01-06T10:36:00;100346.28;;;5.70;100.00
51468;BME280;37545;45.302;-122.946;2024-01-06T10:38:30;100340.50;;;5.74;100.00
51468;BME280;37545;45.302;-122.946;2024-01-06T10:40:59;100339.66;;;5.75;100.00
51468;BME280;37545;45.302;-122.946;2024-01-06T10:43:39;100354.19;;;5.74;100.00
51468;BME280;37545;45.302;-122.946;2024-01-06T10:46:10;100339.66;;;5.75;100.00
51468;BME280;37545;45.302;-122.946;2024-01-06T10:48:48;100354.16;;;5.73;100.00
51468;BME280;37545;45.302;-122.946;2024-01-06T10:51:19;100349.63;;;5.67;100.00
51468;BME280;37545;45.302;-122.946;2024-01-06T10:53:50;100359.28;;;5.73;100.00
51468;BME280;37545;45.302;-122.946;2024-01-06T10:56:19;100353.06;;;5.67;100.00
51468;BME280;37545;45.302;-122.946;2024-01-06T10:58:57;100353.97;;;5.68;100.00
51468;BME280;37545;45.302;-122.946;2024-01-06T11:01:26;100338.41;;;5.65;100.00
51468;BME280;37545;45.302;-122.946;2024-01-06T11:03:56;100349.53;;;5.65;100.00
51468;BME280;37545;45.302;-122.946;2024-01-06T11:06:38;100347.59;;;5.60;100.00
51468;BME280;37545;45.302;-122.946;2024-01-06T11:09:13;100343.16;;;5.56;100.00
51468;BME280;37545;45.302;-122.946;2024-01-06T11:11:43;100331.88;;;5.52;100.00
51468;BME280;37545;45.302;-122.946;2024-01-06T11:14:22;100347.69;;;5.61;100.00
51468;BME280;37545;45.302;-122.946;2024-01-06T11:16:53;100332.13;;;5.58;100.00
51468;BME280;37545;45.302;-122.946;2024-01-06T11:19:42;100330.22;;;5.54;100.00
51468;BME280;37545;45.302;-122.946;2024-01-06T11:22:32;100338.88;;;5.56;100.00
51468;BME280;37545;45.302;-122.946;2024-01-06T11:25:07;100336.31;;;5.56;100.00
51468;BME280;37545;45.302;-122.946;2024-01-06T11:27:37;100314.72;;;5.51;100.00
51468;BME280;37545;45.302;-122.946;2024-01-06T11:30:20;100305.88;;;5.44;100.00
51468;BME280;37545;45.302;-122.946;2024-01-06T11:32:50;100310.13;;;5.44;100.00
51468;BME280;37545;45.302;-122.946;2024-01-06T11:35:31;100310.81;;;5.40;100.00
51468;BME280;37545;45.302;-122.946;2024-01-06T11:38:03;100312.59;;;5.41;100.00
51468;BME280;37545;45.302;-122.946;2024-01-06T11:40:33;100324.59;;;5.42;100.00
51468;BME280;37545;45.302;-122.946;2024-01-06T11:43:09;100324.00;;;5.48;100.00
51468;BME280;37545;45.302;-122.946;2024-01-06T11:45:40;100315.38;;;5.47;100.00
51468;BME280;37545;45.302;-122.946;2024-01-06T11:48:11;100303.28;;;5.43;100.00
51468;BME280;37545;45.302;-122.946;2024-01-06T11:50:40;100307.31;;;5.38;100.00
51468;BME280;37545;45.302;-122.946;2024-01-06T11:53:14;100290.91;;;5.34;100.00
51468;BME280;37545;45.302;-122.946;2024-01-06T11:55:43;100282.53;;;5.38;100.00
51468;BME280;37545;45.302;-122.946;2024-01-06T11:58:12;100274.78;;;5.37;100.00
51468;BME280;37545;45.302;-122.946;2024-01-06T12:00:41;100281.25;;;5.29;100.00
51468;BME280;37545;45.302;-122.946;2024-01-06T12:03:15;100282.28;;;5.32;100.00
51468;BME280;37545;45.302;-122.946;2024-01-06T12:05:44;100288.28;;;5.33;100.00
51468;BME280;37545;45.302;-122.946;2024-01-06T12:08:19;100285.16;;;5.40;100.00
51468;BME280;37545;45.302;-122.946;2024-01-06T12:10:48;100282.00;;;5.45;100.00
51468;BME280;37545;45.302;-122.946;2024-01-06T12:13:19;100294.19;;;5.51;100.00
51468;BME280;37545;45.302;-122.946;2024-01-06T12:15:48;100295.81;;;5.49;100.00
51468;BME280;37545;45.302;-122.946;2024-01-06T12:18:18;100299.44;;;5.54;100.00
51468;BME280;37545;45.302;-122.946;2024-01-06T12:20:49;100292.44;;;5.50;100.00
51468;BME280;37545;45.302;-122.946;2024-01-06T12:23:27;100281.34;;;5.51;100.00
51468;BME280;37545;45.302;-122.946;2024-01-06T12:25:56;100279.47;;;5.47;100.00
51468;BME280;37545;45.302;-122.946;2024-01-06T12:28:30;100265.84;;;5.48;100.00
51468;BME280;37545;45.302;-122.946;2024-01-06T12:31:09;100266.63;;;5.47;100.00
51468;BME280;37545;45.302;-122.946;2024-01-06T12:33:37;100264.22;;;5.50;100.00
51468;BME280;37545;45.302;-122.946;2024-01-06T12:36:07;100257.47;;;5.52;100.00
51468;BME280;37545;45.302;-122.946;2024-01-06T12:38:51;100260.63;;;5.46;100.00
51468;BME280;37545;45.302;-122.946;2024-01-06T12:41:22;100275.28;;;5.49;100.00
51468;BME280;37545;45.302;-122.946;2024-01-06T12:43:54;100277.06;;;5.50;100.00
51468;BME280;37545;45.302;-122.946;2024-01-06T12:46:26;100278.00;;;5.52;100.00
51468;BME280;37545;45.302;-122.946;2024-01-06T12:48:55;100255.38;;;5.43;100.00
51468;BME280;37545;45.302;-122.946;2024-01-06T12:51:23;100266.53;;;5.44;100.00
51468;BME280;37545;45.302;-122.946;2024-01-06T12:54:02;100270.41;;;5.34;100.00
51468;BME280;37545;45.302;-122.946;2024-01-06T12:56:32;100274.66;;;5.34;100.00
51468;BME280;37545;45.302;-122.946;2024-01-06T12:59:01;100285.78;;;5.34;100.00
51468;BME280;37545;45.302;-122.946;2024-01-06T13:01:32;100281.66;;;5.38;100.00
51468;BME280;37545;45.302;-122.946;2024-01-06T13:04:04;100287.91;;;5.44;100.00
51468;BME280;37545;45.302;-122.946;2024-01-06T13:06:33;100289.94;;;5.52;100.00
51468;BME280;37545;45.302;-122.946;2024-01-06T13:09:03;100293.50;;;5.55;100.00
51468;BME280;37545;45.302;-122.946;2024-01-06T13:11:44;100300.56;;;5.61;100.00
51468;BME280;37545;45.302;-122.946;2024-01-06T13:14:14;100301.59;;;5.64;100.00
51468;BME280;37545;45.302;-122.946;2024-01-06T13:16:43;100297.25;;;5.63;100.00
51468;BME280;37545;45.302;-122.946;2024-01-06T13:19:14;100306.09;;;5.70;100.00
51468;BME280;37545;45.302;-122.946;2024-01-06T13:21:50;100299.28;;;5.71;100.00
51468;BME280;37545;45.302;-122.946;2024-01-06T13:24:22;100302.75;;;5.71;100.00
51468;BME280;37545;45.302;-122.946;2024-01-06T13:26:51;100290.88;;;5.75;100.00
51468;BME280;37545;45.302;-122.946;2024-01-06T13:29:22;100296.34;;;5.82;100.00
51468;BME280;37545;45.302;-122.946;2024-01-06T13:31:51;100293.63;;;5.79;100.00
51468;BME280;37545;45.302;-122.946;2024-01-06T13:34:20;100299.53;;;5.77;100.00
51468;BME280;37545;45.302;-122.946;2024-01-06T13:36:49;100295.22;;;5.76;100.00
51468;BME280;37545;45.302;-122.946;2024-01-06T13:39:18;100282.31;;;5.74;100.00
51468;BME280;37545;45.302;-122.946;2024-01-06T13:41:52;100291.72;;;5.74;100.00
51468;BME280;37545;45.302;-122.946;2024-01-06T13:44:20;100288.31;;;5.75;100.00
51468;BME280;37545;45.302;-122.946;2024-01-06T13:46:50;100287.44;;;5.74;100.00
51468;BME280;37545;45.302;-122.946;2024-01-06T13:49:21;100294.41;;;5.77;100.00
51468;BME280;37545;45.302;-122.946;2024-01-06T13:51:52;100313.38;;;5.80;100.00
51468;BME280;37545;45.302;-122.946;2024-01-06T13:54:20;100316.72;;;5.78;100.00
51468;BME280;37545;45.302;-122.946;2024-01-06T13:56:51;100322.53;;;5.74;100.00
51468;BME280;37545;45.302;-122.946;2024-01-06T13:59:20;100321.63;;;5.52;100.00
51468;BME280;37545;45.302;-122.946;2024-01-06T14:01:48;100307.84;;;5.50;100.00
51468;BME280;37545;45.302;-122.946;2024-01-06T14:04:17;100309.03;;;5.58;100.00
51468;BME280;37545;45.302;-122.946;2024-01-06T14:06:46;100305.88;;;5.64;100.00
51468;BME280;37545;45.302;-122.946;2024-01-06T14:09:20;100304.44;;;5.71;100.00
51468;BME280;37545;45.302;-122.946;2024-01-06T14:11:56;100318.34;;;5.76;100.00
51468;BME280;37545;45.302;-122.946;2024-01-06T14:14:25;100325.09;;;5.74;100.00
51468;BME280;37545;45.302;-122.946;2024-01-06T14:16:54;100331.03;;;5.73;100.00